createdAt,value
2022-12-18T00:00:58.685Z,0.98
2022-12-18T00:03:29.900Z,0.60
2022-12-18T00:06:00.868Z,0.55
2022-12-18T00:08:31.800Z,0.65
2022-12-18T00:11:10.809Z,0.60
2022-12-18T00:13:41.990Z,0.52
2022-12-18T00:16:18.223Z,0.57
2022-12-18T00:18:50.691Z,0.60
2022-12-18T00:21:22.605Z,0.60
2022-12-18T00:23:54.090Z,0.60
2022-12-18T00:26:43.197Z,0.70
2022-12-18T00:29:16.699Z,0.60
2022-12-18T00:31:47.851Z,0.77
2022-12-18T00:34:18.689Z,0.75
2022-12-18T00:36:51.403Z,0.70
2022-12-18T00:39:22.361Z,0.70
2022-12-18T00:42:11.452Z,0.73
2022-12-18T00:44:42.439Z,0.55
2022-12-18T00:47:13.201Z,0.70
2022-12-18T00:49:44.172Z,0.82
2022-12-18T00:52:15.092Z,0.70
2022-12-18T00:54:45.991Z,0.60
2022-12-18T00:57:17.578Z,0.75
2022-12-18T00:59:48.739Z,0.60
2022-12-18T01:02:20.269Z,0.70
2022-12-18T01:07:25.813Z,0.68
2022-12-18T01:09:56.573Z,0.90
2022-12-18T01:12:27.467Z,0.93
2022-12-18T01:14:58.398Z,0.90
2022-12-18T01:17:29.414Z,0.88
2022-12-18T01:20:00.711Z,1.00
2022-12-18T01:22:33.286Z,0.93
2022-12-18T01:27:37.421Z,0.80
2022-12-18T01:30:09.603Z,1.02
2022-12-18T01:32:40.518Z,0.90
2022-12-18T01:35:13.253Z,0.80
2022-12-18T01:38:11.586Z,0.80
2022-12-18T01:40:42.691Z,1.05
2022-12-18T01:43:15.150Z,1.00
2022-12-18T01:45:46.121Z,0.90
2022-12-18T01:50:47.661Z,0.90
2022-12-18T01:53:26.213Z,0.95
2022-12-18T01:55:59.145Z,1.00
2022-12-18T01:58:49.983Z,0.90
